createdAt,value
2017-12-27T00:00:32.011Z,47.99
2017-12-27T00:01:32.013Z,47.99
2017-12-27T00:02:32.015Z,48.08
2017-12-27T00:03:32.016Z,47.99
2017-12-27T00:04:32.022Z,48.08
2017-12-27T00:05:32.020Z,48.18
2017-12-27T00:06:32.021Z,48.18
2017-12-27T00:07:32.024Z,48.18
2017-12-27T00:08:32.029Z,48.18
2017-12-27T00:09:32.028Z,48.28
2017-12-27T00:10:32.029Z,48.28
2017-12-27T00:11:32.031Z,47.99
2017-12-27T00:12:32.034Z,47.99
2017-12-27T00:13:32.035Z,47.99
2017-12-27T00:14:32.039Z,48.28
2017-12-27T00:15:32.040Z,48.08
2017-12-27T00:16:32.040Z,47.99
2017-12-27T00:17:32.048Z,48.08
2017-12-27T00:18:32.043Z,48.08
2017-12-27T00:19:32.048Z,48.18
2017-12-27T00:20:32.047Z,48.38
2017-12-27T00:21:32.049Z,47.70
2017-12-27T00:22:32.051Z,47.70
2017-12-27T00:23:32.058Z,47.70
2017-12-27T00:24:32.056Z,47.77
2017-12-27T00:25:32.056Z,47.80
2017-12-27T00:26:32.057Z,47.89
2017-12-27T00:27:32.061Z,47.87
2017-12-27T00:28:32.062Z,47.70
2017-12-27T00:29:32.065Z,47.80
2017-12-27T00:30:32.065Z,47.70
2017-12-27T00:31:32.068Z,47.89
2017-12-27T00:32:32.070Z,47.70
2017-12-27T00:33:32.070Z,47.51
2017-12-27T00:34:32.072Z,47.89
2017-12-27T00:35:32.079Z,47.80
2017-12-27T00:36:32.076Z,47.70
2017-12-27T00:37:32.077Z,47.60
2017-12-27T00:38:32.080Z,47.80
2017-12-27T00:39:32.082Z,47.60
2017-12-27T00:40:32.083Z,47.80
2017-12-27T00:41:32.085Z,47.80
2017-12-27T00:42:32.087Z,47.60
2017-12-27T00:43:32.090Z,47.67
2017-12-27T00:44:32.091Z,47.80
2017-12-27T00:45:32.092Z,47.67
2017-12-27T00:46:32.094Z,47.80
2017-12-27T00:47:32.096Z,47.70
2017-12-27T00:48:32.098Z,47.80
2017-12-27T00:49:32.099Z,47.70
2017-12-27T00:50:32.105Z,47.80
2017-12-27T00:51:32.103Z,47.70
2017-12-27T00:52:32.106Z,47.70
2017-12-27T00:53:32.113Z,47.67
2017-12-27T00:54:32.108Z,47.77
2017-12-27T00:55:32.110Z,47.70
2017-12-27T00:56:32.112Z,47.70
2017-12-27T00:57:32.114Z,47.70
2017-12-27T00:58:32.118Z,47.67
2017-12-27T00:59:32.119Z,47.80
2017-12-27T01:00:32.121Z,47.77
2017-12-27T01:01:32.120Z,48.08
2017-12-27T01:02:32.123Z,48.08
2017-12-27T01:03:32.125Z,48.08
2017-12-27T01:04:32.127Z,48.06
2017-12-27T01:05:32.128Z,48.08
2017-12-27T01:06:32.130Z,47.80
2017-12-27T01:07:32.133Z,48.08
2017-12-27T01:08:32.134Z,47.80
2017-12-27T01:09:32.135Z,47.80
2017-12-27T01:10:32.137Z,47.80
2017-12-27T01:11:32.139Z,47.87
2017-12-27T01:12:32.141Z,47.77
2017-12-27T01:13:32.142Z,47.77
2017-12-27T01:14:32.145Z,47.99
2017-12-27T01:15:32.147Z,47.87
2017-12-27T01:16:32.149Z,47.97
2017-12-27T01:17:32.152Z,47.87
2017-12-27T01:18:32.151Z,47.89
2017-12-27T01:19:32.153Z,47.89
2017-12-27T01:20:32.155Z,47.80
2017-12-27T01:21:32.156Z,47.97
2017-12-27T01:22:32.158Z,47.77
2017-12-27T01:23:32.161Z,47.89
2017-12-27T01:24:32.162Z,47.87
2017-12-27T01:25:32.164Z,47.87
2017-12-27T01:26:32.166Z,48.16
2017-12-27T01:27:32.169Z,47.87
2017-12-27T01:28:32.168Z,47.87
2017-12-27T01:29:32.172Z,48.06
2017-12-27T01:30:32.174Z,48.06
2017-12-27T01:31:32.176Z,47.97
2017-12-27T01:32:32.186Z,47.87
2017-12-27T01:33:32.178Z,48.08
2017-12-27T01:34:32.180Z,47.77
2017-12-27T01:35:32.184Z,47.89
2017-12-27T01:36:32.185Z,47.97
2017-12-27T01:37:32.185Z,47.39
2017-12-27T01:38:32.187Z,47.39
2017-12-27T01:39:32.189Z,47.97
2017-12-27T01:40:32.191Z,47.39
2017-12-27T01:41:32.191Z,47.49
2017-12-27T01:42:32.194Z,47.77
2017-12-27T01:43:32.196Z,47.49
2017-12-27T01:44:32.198Z,47.19
2017-12-27T01:45:32.199Z,47.67
2017-12-27T01:46:32.200Z,47.67
2017-12-27T01:47:32.203Z,47.58
2017-12-27T01:48:32.205Z,47.67
2017-12-27T01:49:32.206Z,47.58
2017-12-27T01:50:32.207Z,47.67
2017-12-27T01:51:32.210Z,47.58
2017-12-27T01:52:32.215Z,47.49
2017-12-27T01:53:32.212Z,47.58
2017-12-27T01:54:32.215Z,47.39
2017-12-27T01:55:32.217Z,47.49
2017-12-27T01:56:32.219Z,47.67
2017-12-27T01:57:32.220Z,47.49
2017-12-27T01:58:32.222Z,47.58
2017-12-27T01:59:32.224Z,47.67
2017-12-27T02:00:32.225Z,47.67
2017-12-27T02:01:32.227Z,47.58
2017-12-27T02:02:32.229Z,47.58
2017-12-27T02:03:32.231Z,47.58
2017-12-27T02:04:32.232Z,47.77
2017-12-27T02:05:32.233Z,47.58
2017-12-27T02:06:32.235Z,47.49
2017-12-27T02:07:32.238Z,47.49
2017-12-27T02:08:32.240Z,47.49
2017-12-27T02:09:32.242Z,47.58
2017-12-27T02:10:32.245Z,47.49
2017-12-27T02:11:32.244Z,47.67
2017-12-27T02:12:32.246Z,47.49
2017-12-27T02:13:32.249Z,47.67
2017-12-27T02:14:32.250Z,47.58
2017-12-27T02:15:32.252Z,47.39
2017-12-27T02:16:32.253Z,47.58
2017-12-27T02:17:32.257Z,47.29
2017-12-27T02:18:32.256Z,47.39
2017-12-27T02:19:32.260Z,47.58
2017-12-27T02:20:32.260Z,47.29
2017-12-27T02:21:32.263Z,47.58
2017-12-27T02:22:32.264Z,47.29
2017-12-27T02:23:32.265Z,47.19
2017-12-27T02:24:32.267Z,47.19
2017-12-27T02:25:32.268Z,47.39
2017-12-27T02:26:32.271Z,47.49
2017-12-27T02:27:32.272Z,47.49
2017-12-27T02:28:32.274Z,47.49
2017-12-27T02:29:32.276Z,47.58
2017-12-27T02:30:32.277Z,47.39
2017-12-27T02:31:32.279Z,47.49
2017-12-27T02:32:32.282Z,47.39
2017-12-27T02:33:32.282Z,47.19
2017-12-27T02:34:32.284Z,47.77
2017-12-27T02:35:32.286Z,47.39
2017-12-27T02:36:32.288Z,47.67
2017-12-27T02:37:32.289Z,47.58
2017-12-27T02:38:32.291Z,47.67
2017-12-27T02:39:32.293Z,47.67
2017-12-27T02:40:32.296Z,46.81
2017-12-27T02:41:32.296Z,47.67
2017-12-27T02:42:32.297Z,47.77
2017-12-27T02:43:32.300Z,47.49
2017-12-27T02:44:32.302Z,47.19
2017-12-27T02:45:32.302Z,47.39
2017-12-27T02:46:32.304Z,47.39
2017-12-27T02:47:32.313Z,47.39
2017-12-27T02:48:32.309Z,47.39
2017-12-27T02:49:32.309Z,47.29
2017-12-27T02:50:32.311Z,47.39
2017-12-27T02:51:32.313Z,47.19
2017-12-27T02:52:32.316Z,47.39
2017-12-27T02:53:32.316Z,47.39
2017-12-27T02:54:32.318Z,47.19
2017-12-27T02:55:32.320Z,47.19
2017-12-27T02:56:32.322Z,47.39
2017-12-27T02:57:32.324Z,47.29
2017-12-27T02:58:32.326Z,47.39
2017-12-27T02:59:32.326Z,47.39
2017-12-27T03:00:32.337Z,47.29
2017-12-27T03:01:32.331Z,47.39
2017-12-27T03:02:32.332Z,47.39
2017-12-27T03:03:32.334Z,47.39
2017-12-27T03:04:32.343Z,47.49
2017-12-27T03:05:32.343Z,47.29
2017-12-27T03:06:32.340Z,47.29
2017-12-27T03:07:32.341Z,47.29
2017-12-27T03:08:32.343Z,47.49
2017-12-27T03:09:32.343Z,47.49
2017-12-27T03:10:32.345Z,47.39
2017-12-27T03:11:32.347Z,47.39
2017-12-27T03:12:32.349Z,47.39
2017-12-27T03:13:32.359Z,47.39
2017-12-27T03:14:32.351Z,47.19
2017-12-27T03:15:32.354Z,47.39
2017-12-27T03:16:32.357Z,47.29
2017-12-27T03:17:32.357Z,47.49
2017-12-27T03:18:32.362Z,47.29
2017-12-27T03:19:32.360Z,47.00
2017-12-27T03:20:32.362Z,47.39
2017-12-27T03:21:32.363Z,47.19
2017-12-27T03:22:32.372Z,47.19
2017-12-27T03:23:32.367Z,47.10
2017-12-27T03:24:32.369Z,47.10
2017-12-27T03:25:32.370Z,47.19
2017-12-27T03:26:32.374Z,47.00
2017-12-27T03:27:32.374Z,46.71
2017-12-27T03:28:32.376Z,47.19
2017-12-27T03:29:32.376Z,46.81
2017-12-27T03:30:32.379Z,46.81
2017-12-27T03:31:32.379Z,46.71
2017-12-27T03:32:32.386Z,47.19
2017-12-27T03:33:32.383Z,46.91
2017-12-27T03:34:32.386Z,46.81
2017-12-27T03:35:32.387Z,46.81
2017-12-27T03:36:32.389Z,46.91
2017-12-27T03:37:32.391Z,47.10
2017-12-27T03:38:32.392Z,47.19
2017-12-27T03:39:32.399Z,47.19
2017-12-27T03:40:32.396Z,47.19
2017-12-27T03:41:32.397Z,47.10
2017-12-27T03:42:32.399Z,47.00
2017-12-27T03:43:32.401Z,47.19
2017-12-27T03:44:32.403Z,47.10
2017-12-27T03:45:32.402Z,47.00
2017-12-27T03:46:32.405Z,47.19
2017-12-27T03:47:32.410Z,47.00
2017-12-27T03:48:32.410Z,47.29
2017-12-27T03:49:32.416Z,47.10
2017-12-27T03:50:32.412Z,47.19
2017-12-27T03:51:32.422Z,47.00
2017-12-27T03:52:32.416Z,47.00
2017-12-27T03:53:32.417Z,47.00
2017-12-27T03:54:32.419Z,47.19
2017-12-27T03:55:32.420Z,47.19
2017-12-27T03:56:32.424Z,47.19
2017-12-27T03:57:32.424Z,47.19
2017-12-27T03:58:32.432Z,47.19
2017-12-27T03:59:32.432Z,47.19
2017-12-27T04:00:32.432Z,47.19
2017-12-27T04:01:32.434Z,47.19
2017-12-27T04:02:32.436Z,47.19
2017-12-27T04:03:32.437Z,47.00
2017-12-27T04:04:32.438Z,47.19
2017-12-27T04:05:32.436Z,47.19
2017-12-27T04:06:32.438Z,47.39
2017-12-27T04:07:32.444Z,47.29
2017-12-27T04:08:32.443Z,47.39
2017-12-27T04:09:32.444Z,47.00
2017-12-27T04:10:32.446Z,47.29
2017-12-27T04:11:32.447Z,47.39
2017-12-27T04:12:32.449Z,47.29
2017-12-27T04:13:32.450Z,47.19
2017-12-27T04:14:32.452Z,47.19
2017-12-27T04:15:32.455Z,47.00
2017-12-27T04:16:32.456Z,46.91
2017-12-27T04:17:32.457Z,46.81
2017-12-27T04:18:32.459Z,46.62
2017-12-27T04:19:32.462Z,46.62
2017-12-27T04:20:32.463Z,46.62
2017-12-27T04:21:32.464Z,46.62
2017-12-27T04:22:32.466Z,46.52
2017-12-27T04:23:32.468Z,46.62
2017-12-27T04:24:32.470Z,46.52
2017-12-27T04:25:32.471Z,46.81
2017-12-27T04:26:32.475Z,46.81
2017-12-27T04:27:32.475Z,46.81
2017-12-27T04:28:32.475Z,46.71
2017-12-27T04:29:32.478Z,46.62
2017-12-27T04:30:32.480Z,46.71
2017-12-27T04:31:32.482Z,46.52
2017-12-27T04:32:32.484Z,46.62
2017-12-27T04:33:32.485Z,46.81
2017-12-27T04:34:32.488Z,46.52
2017-12-27T04:35:32.489Z,46.62
2017-12-27T04:36:32.491Z,46.62
2017-12-27T04:37:32.492Z,46.52
2017-12-27T04:38:32.494Z,46.52
2017-12-27T04:39:32.497Z,46.52
2017-12-27T04:40:32.499Z,46.71
2017-12-27T04:41:32.503Z,46.33
2017-12-27T04:42:32.506Z,46.42
2017-12-27T04:43:32.504Z,46.62
2017-12-27T04:44:32.505Z,46.33
2017-12-27T04:45:32.508Z,46.42
2017-12-27T04:46:32.510Z,46.52
2017-12-27T04:47:32.512Z,46.71
2017-12-27T04:48:32.517Z,46.62
2017-12-27T04:49:32.515Z,46.71
2017-12-27T04:50:32.518Z,46.81
2017-12-27T04:51:32.520Z,46.62
2017-12-27T04:52:32.522Z,46.81
2017-12-27T04:53:32.523Z,46.52
2017-12-27T04:54:32.526Z,46.62
2017-12-27T04:55:32.528Z,46.81
2017-12-27T04:56:32.530Z,46.81
2017-12-27T04:57:32.533Z,46.42
2017-12-27T04:58:32.533Z,46.25
2017-12-27T04:59:32.535Z,46.25
2017-12-27T05:00:32.538Z,46.35
2017-12-27T05:01:32.560Z,46.35
2017-12-27T05:02:32.543Z,46.45
2017-12-27T05:03:32.545Z,46.45
2017-12-27T05:04:32.550Z,45.29
2017-12-27T05:05:32.549Z,45.29
2017-12-27T05:06:32.550Z,45.29
2017-12-27T05:07:32.552Z,46.64
2017-12-27T05:08:32.555Z,46.83
2017-12-27T05:09:32.557Z,46.93
2017-12-27T05:10:32.560Z,47.41
2017-12-27T05:11:32.561Z,47.41
2017-12-27T05:12:32.565Z,47.87
2017-12-27T05:13:32.564Z,47.70
2017-12-27T05:14:32.567Z,48.25
2017-12-27T05:15:32.568Z,48.35
2017-12-27T05:16:32.569Z,48.44
2017-12-27T05:17:32.571Z,48.83
2017-12-27T05:18:32.573Z,48.74
2017-12-27T05:19:32.574Z,48.93
2017-12-27T05:20:32.577Z,48.93
2017-12-27T05:21:32.577Z,48.74
2017-12-27T05:22:32.579Z,49.22
2017-12-27T05:23:32.581Z,49.22
2017-12-27T05:24:32.582Z,48.83
2017-12-27T05:25:32.583Z,49.22
2017-12-27T05:26:32.583Z,49.22
2017-12-27T05:27:32.586Z,49.41
2017-12-27T05:28:32.589Z,49.02
2017-12-27T05:29:32.589Z,49.41
2017-12-27T05:30:32.590Z,49.22
2017-12-27T05:31:32.593Z,49.02
2017-12-27T05:32:32.596Z,49.70
2017-12-27T05:33:32.596Z,49.60
2017-12-27T05:34:32.598Z,49.51
2017-12-27T05:35:32.602Z,49.51
2017-12-27T05:36:32.604Z,49.41
2017-12-27T05:37:32.602Z,49.05
2017-12-27T05:38:32.605Z,49.41
2017-12-27T05:39:32.607Z,49.70
2017-12-27T05:40:32.610Z,49.43
2017-12-27T05:41:32.611Z,49.73
2017-12-27T05:42:32.613Z,49.63
2017-12-27T05:43:32.614Z,49.34
2017-12-27T05:44:32.617Z,49.63
2017-12-27T05:45:32.617Z,50.11
2017-12-27T05:46:32.619Z,50.40
2017-12-27T05:47:32.623Z,50.11
2017-12-27T05:48:32.624Z,50.88
2017-12-27T05:49:32.625Z,50.40
2017-12-27T05:50:32.626Z,50.21
2017-12-27T05:51:32.630Z,50.98
2017-12-27T05:52:32.632Z,50.11
2017-12-27T05:53:32.633Z,50.37
2017-12-27T05:54:32.635Z,50.69
2017-12-27T05:55:32.637Z,50.40
2017-12-27T05:56:32.640Z,50.21
2017-12-27T05:57:32.640Z,50.18
2017-12-27T05:58:32.648Z,50.40
2017-12-27T05:59:32.649Z,50.30
2017-12-27T06:00:32.651Z,50.69
2017-12-27T06:01:32.652Z,50.88
2017-12-27T06:02:32.652Z,50.59
2017-12-27T06:03:32.654Z,50.30
2017-12-27T06:04:32.655Z,50.40
2017-12-27T06:05:32.655Z,50.69
2017-12-27T06:06:32.665Z,50.88
2017-12-27T06:07:32.661Z,50.30
2017-12-27T06:08:32.672Z,50.69
2017-12-27T06:09:32.664Z,50.69
2017-12-27T06:10:32.667Z,50.69
2017-12-27T06:11:32.669Z,50.78
2017-12-27T06:12:32.670Z,50.11
2017-12-27T06:13:32.672Z,51.56
2017-12-27T06:14:32.674Z,50.66
2017-12-27T06:15:32.678Z,50.78
2017-12-27T06:16:32.679Z,51.84
2017-12-27T06:17:32.681Z,50.69
2017-12-27T06:18:32.682Z,51.26
2017-12-27T06:19:32.688Z,50.98
2017-12-27T06:20:32.693Z,51.65
2017-12-27T06:21:32.687Z,51.56
2017-12-27T06:22:32.690Z,50.98
2017-12-27T06:23:32.692Z,51.46
2017-12-27T06:24:32.698Z,51.46
2017-12-27T06:25:32.695Z,51.56
2017-12-27T06:26:32.697Z,51.94
2017-12-27T06:27:32.698Z,51.84
2017-12-27T06:28:32.701Z,51.56
2017-12-27T06:29:32.701Z,51.46
2017-12-27T06:30:32.705Z,51.75
2017-12-27T06:31:32.705Z,51.75
2017-12-27T06:32:32.709Z,51.17
2017-12-27T06:33:32.708Z,51.34
2017-12-27T06:34:32.711Z,52.23
2017-12-27T06:35:32.712Z,52.13
2017-12-27T06:36:32.714Z,52.13
2017-12-27T06:37:32.716Z,51.26
2017-12-27T06:38:32.714Z,52.23
2017-12-27T06:39:32.718Z,51.94
2017-12-27T06:40:32.719Z,52.23
2017-12-27T06:41:32.720Z,52.23
2017-12-27T06:42:32.723Z,51.56
2017-12-27T06:43:32.724Z,51.75
2017-12-27T06:44:32.727Z,51.56
2017-12-27T06:45:32.727Z,51.56
2017-12-27T06:46:32.729Z,52.13
2017-12-27T06:47:32.731Z,51.84
2017-12-27T06:48:32.740Z,51.84
2017-12-27T06:49:32.741Z,52.04
2017-12-27T06:50:32.742Z,51.75
2017-12-27T06:51:32.739Z,52.13
2017-12-27T06:52:32.741Z,51.84
2017-12-27T06:53:32.743Z,51.84
2017-12-27T06:54:32.743Z,51.84
2017-12-27T06:55:32.745Z,51.56
2017-12-27T06:56:32.746Z,52.11
2017-12-27T06:57:32.746Z,52.11
2017-12-27T06:58:32.747Z,51.75
2017-12-27T06:59:32.749Z,51.84
2017-12-27T07:00:32.750Z,51.75
2017-12-27T07:01:32.751Z,52.11
2017-12-27T07:02:32.752Z,51.84
2017-12-27T07:03:32.754Z,51.84
2017-12-27T07:04:32.756Z,51.75
2017-12-27T07:05:32.757Z,51.84
2017-12-27T07:06:32.759Z,51.84
2017-12-27T07:07:32.762Z,51.84
2017-12-27T07:08:32.762Z,51.36
2017-12-27T07:09:32.770Z,51.56
2017-12-27T07:10:32.765Z,51.94
2017-12-27T07:11:32.766Z,51.94
2017-12-27T07:12:32.769Z,51.65
2017-12-27T07:13:32.770Z,51.26
2017-12-27T07:14:32.772Z,51.46
2017-12-27T07:15:32.775Z,51.46
2017-12-27T07:16:32.776Z,51.46
2017-12-27T07:17:32.777Z,51.84
2017-12-27T07:18:32.778Z,51.36
2017-12-27T07:19:32.779Z,51.65
2017-12-27T07:20:32.782Z,51.46
2017-12-27T07:21:32.784Z,51.46
2017-12-27T07:22:32.786Z,51.17
2017-12-27T07:23:32.788Z,51.17
2017-12-27T07:24:32.789Z,51.46
2017-12-27T07:25:32.791Z,52.04
2017-12-27T07:26:32.792Z,51.46
2017-12-27T07:27:32.804Z,51.65
2017-12-27T07:28:32.797Z,51.65
2017-12-27T07:29:32.800Z,51.26
2017-12-27T07:30:32.800Z,51.84
2017-12-27T07:31:32.803Z,51.56
2017-12-27T07:32:32.813Z,51.26
2017-12-27T07:33:32.807Z,51.46
2017-12-27T07:34:32.808Z,51.56
2017-12-27T07:35:32.810Z,51.65
2017-12-27T07:36:32.813Z,51.26
2017-12-27T07:37:32.814Z,52.04
2017-12-27T07:38:32.817Z,51.46
2017-12-27T07:39:32.819Z,51.56
2017-12-27T07:40:32.822Z,51.65
2017-12-27T07:41:32.822Z,51.56
2017-12-27T07:42:32.824Z,51.36
2017-12-27T07:43:32.827Z,51.84
2017-12-27T07:44:32.829Z,52.42
2017-12-27T07:45:32.830Z,52.52
2017-12-27T07:46:32.832Z,52.33
2017-12-27T07:47:32.835Z,52.42
2017-12-27T07:48:32.837Z,52.23
2017-12-27T07:49:32.839Z,51.75
2017-12-27T07:50:32.844Z,51.75
2017-12-27T07:51:32.844Z,51.97
2017-12-27T07:52:32.861Z,51.48
2017-12-27T07:53:32.862Z,51.58
2017-12-27T07:54:32.852Z,51.48
2017-12-27T07:55:32.856Z,51.10
2017-12-27T07:56:32.857Z,50.90
2017-12-27T07:57:32.861Z,51.48
2017-12-27T07:58:32.862Z,51.58
2017-12-27T07:59:32.865Z,51.39
2017-12-27T08:00:32.868Z,51.58
2017-12-27T08:01:32.870Z,51.39
2017-12-27T08:02:32.873Z,51.10
2017-12-27T08:03:32.875Z,51.48
2017-12-27T08:04:32.878Z,52.42
2017-12-27T08:05:32.881Z,51.94
2017-12-27T08:06:32.882Z,52.55
2017-12-27T08:07:32.885Z,52.52
2017-12-27T08:08:32.888Z,52.91
2017-12-27T08:09:32.889Z,52.52
2017-12-27T08:10:32.892Z,52.81
2017-12-27T08:11:32.894Z,52.61
2017-12-27T08:12:32.896Z,53.00
2017-12-27T08:13:32.905Z,53.00
2017-12-27T08:14:32.902Z,52.33
2017-12-27T08:15:32.906Z,53.09
2017-12-27T08:16:32.906Z,52.71
2017-12-27T08:17:32.906Z,53.19
2017-12-27T08:18:32.911Z,53.00
2017-12-27T08:19:32.910Z,53.29
2017-12-27T08:20:32.913Z,53.58
2017-12-27T08:21:32.918Z,52.81
2017-12-27T08:22:32.916Z,53.39
2017-12-27T08:23:32.918Z,52.91
2017-12-27T08:24:32.920Z,52.13
2017-12-27T08:25:32.924Z,51.17
2017-12-27T08:26:32.923Z,50.11
2017-12-27T08:27:32.928Z,49.53
2017-12-27T08:28:32.929Z,48.18
2017-12-27T08:29:32.928Z,47.51
2017-12-27T08:30:32.942Z,47.51
2017-12-27T08:31:32.936Z,47.70
2017-12-27T08:32:32.938Z,47.89
2017-12-27T08:33:32.937Z,48.66
2017-12-27T08:34:32.941Z,49.05
2017-12-27T08:35:32.943Z,49.05
2017-12-27T08:36:32.951Z,49.34
2017-12-27T08:37:32.952Z,49.05
2017-12-27T08:38:32.946Z,49.82
2017-12-27T08:39:32.948Z,50.59
2017-12-27T08:40:32.950Z,50.40
2017-12-27T08:41:32.950Z,50.98
2017-12-27T08:42:32.952Z,50.78
2017-12-27T08:43:32.953Z,50.69
2017-12-27T08:44:32.958Z,50.98
2017-12-27T08:45:32.957Z,51.56
2017-12-27T08:46:32.964Z,51.36
2017-12-27T08:47:32.961Z,51.56
2017-12-27T08:48:32.964Z,51.46
2017-12-27T08:49:32.964Z,51.65
2017-12-27T08:50:32.966Z,51.46
2017-12-27T08:51:32.968Z,51.46
2017-12-27T08:52:32.970Z,51.17
2017-12-27T08:53:32.971Z,52.52
2017-12-27T08:54:32.973Z,52.23
2017-12-27T08:55:32.975Z,51.65
2017-12-27T08:56:32.976Z,52.52
2017-12-27T08:57:32.978Z,52.33
2017-12-27T08:58:32.979Z,52.33
2017-12-27T08:59:32.982Z,52.42
2017-12-27T09:00:32.985Z,52.33
2017-12-27T09:01:32.985Z,52.42
2017-12-27T09:02:32.988Z,52.13
2017-12-27T09:03:32.990Z,52.52
2017-12-27T09:04:32.993Z,52.33
2017-12-27T09:05:32.994Z,51.75
2017-12-27T09:06:32.995Z,51.94
2017-12-27T09:07:32.998Z,51.84
2017-12-27T09:08:33.000Z,51.84
2017-12-27T09:09:33.002Z,51.75
2017-12-27T09:10:33.014Z,51.94
2017-12-27T09:11:33.007Z,52.23
2017-12-27T09:12:33.017Z,52.23
2017-12-27T09:13:33.009Z,52.04
2017-12-27T09:14:33.058Z,52.42
2017-12-27T09:15:33.018Z,52.04
2017-12-27T09:16:33.019Z,52.42
2017-12-27T09:17:33.017Z,52.33
2017-12-27T09:18:33.022Z,52.04
2017-12-27T09:19:33.030Z,52.04
2017-12-27T09:20:33.024Z,51.84
2017-12-27T09:21:33.027Z,51.84
2017-12-27T09:22:33.031Z,52.04
2017-12-27T09:23:33.031Z,52.23
2017-12-27T09:24:33.032Z,52.04
2017-12-27T09:25:33.032Z,50.78
2017-12-27T09:26:33.038Z,49.53
2017-12-27T09:27:33.039Z,49.53
2017-12-27T09:28:33.043Z,48.38
2017-12-27T09:29:33.040Z,49.05
2017-12-27T09:30:33.042Z,47.41
2017-12-27T09:31:33.047Z,47.70
2017-12-27T09:32:33.046Z,47.51
2017-12-27T09:33:33.048Z,47.31
2017-12-27T09:34:33.050Z,47.22
2017-12-27T09:35:33.051Z,47.41
2017-12-27T09:36:33.055Z,47.70
2017-12-27T09:37:33.056Z,47.70
2017-12-27T09:38:33.058Z,47.60
2017-12-27T09:39:33.059Z,47.99
2017-12-27T09:40:33.060Z,48.95
2017-12-27T09:41:33.061Z,48.66
2017-12-27T09:42:33.065Z,49.24
2017-12-27T09:43:33.066Z,48.76
2017-12-27T09:44:33.069Z,49.15
2017-12-27T09:45:33.070Z,49.43
2017-12-27T09:46:33.071Z,49.43
2017-12-27T09:47:33.076Z,49.53
2017-12-27T09:48:33.077Z,49.34
2017-12-27T09:49:33.079Z,49.63
2017-12-27T09:50:33.081Z,50.21
2017-12-27T09:51:33.083Z,49.82
2017-12-27T09:52:33.086Z,49.82
2017-12-27T09:53:33.087Z,50.01
2017-12-27T09:54:33.089Z,49.91
2017-12-27T09:55:33.093Z,50.01
2017-12-27T09:56:33.093Z,50.49
2017-12-27T09:57:33.096Z,50.40
2017-12-27T09:58:33.098Z,50.69
2017-12-27T09:59:33.100Z,50.49
2017-12-27T10:00:33.105Z,50.21
2017-12-27T10:01:33.105Z,50.30
2017-12-27T10:02:33.108Z,50.11
2017-12-27T10:03:33.109Z,50.49
2017-12-27T10:04:33.123Z,50.40
2017-12-27T10:05:33.115Z,50.59
2017-12-27T10:06:33.117Z,50.42
2017-12-27T10:07:33.120Z,50.59
2017-12-27T10:08:33.121Z,50.88
2017-12-27T10:09:33.125Z,50.52
2017-12-27T10:10:33.126Z,51.07
2017-12-27T10:11:33.130Z,51.00
2017-12-27T10:12:33.138Z,51.29
2017-12-27T10:13:33.134Z,51.00
2017-12-27T10:14:33.137Z,50.71
2017-12-27T10:15:33.139Z,51.20
2017-12-27T10:16:33.142Z,51.29
2017-12-27T10:17:33.145Z,51.20
2017-12-27T10:18:33.145Z,50.81
2017-12-27T10:19:33.149Z,51.00
2017-12-27T10:20:33.151Z,51.00
2017-12-27T10:21:33.153Z,50.81
2017-12-27T10:22:33.156Z,50.81
2017-12-27T10:23:33.159Z,51.00
2017-12-27T10:24:33.161Z,50.71
2017-12-27T10:25:33.164Z,51.00
2017-12-27T10:26:33.166Z,50.81
2017-12-27T10:27:33.168Z,50.90
2017-12-27T10:28:33.173Z,51.10
2017-12-27T10:29:33.173Z,50.90
2017-12-27T10:30:33.176Z,51.10
2017-12-27T10:31:33.182Z,50.71
2017-12-27T10:32:33.182Z,51.29
2017-12-27T10:33:33.184Z,50.71
2017-12-27T10:34:33.186Z,50.71
2017-12-27T10:35:33.189Z,50.81
2017-12-27T10:36:33.194Z,50.62
2017-12-27T10:37:33.194Z,50.42
2017-12-27T10:38:33.199Z,50.23
2017-12-27T10:39:33.200Z,49.46
2017-12-27T10:40:33.203Z,48.97
2017-12-27T10:41:33.202Z,48.28
2017-12-27T10:42:33.206Z,47.63
2017-12-27T10:43:33.209Z,47.14
2017-12-27T10:44:33.212Z,46.83
2017-12-27T10:45:33.213Z,46.18
2017-12-27T10:46:33.217Z,45.99
2017-12-27T10:47:33.219Z,45.29
2017-12-27T10:48:33.223Z,44.13
2017-12-27T10:49:33.222Z,45.51
2017-12-27T10:50:33.226Z,44.04
2017-12-27T10:51:33.227Z,44.54
2017-12-27T10:52:33.231Z,44.52
2017-12-27T10:53:33.231Z,43.75
2017-12-27T10:54:33.235Z,43.77
2017-12-27T10:55:33.263Z,43.77
2017-12-27T10:56:33.238Z,44.71
2017-12-27T10:57:33.242Z,44.62
2017-12-27T10:58:33.242Z,45.21
2017-12-27T10:59:33.244Z,45.77
2017-12-27T11:00:33.247Z,45.60
2017-12-27T11:01:33.248Z,45.99
2017-12-27T11:02:33.251Z,46.37
2017-12-27T11:03:33.254Z,46.35
2017-12-27T11:04:33.258Z,46.66
2017-12-27T11:05:33.255Z,47.05
2017-12-27T11:06:33.262Z,46.95
2017-12-27T11:07:33.261Z,47.41
2017-12-27T11:08:33.266Z,47.63
2017-12-27T11:09:33.266Z,47.34
2017-12-27T11:10:33.269Z,47.72
2017-12-27T11:11:33.270Z,47.82
2017-12-27T11:12:33.274Z,48.11
2017-12-27T11:13:33.277Z,47.82
2017-12-27T11:14:33.278Z,47.92
2017-12-27T11:15:33.282Z,48.21
2017-12-27T11:16:33.284Z,48.11
2017-12-27T11:17:33.288Z,48.21
2017-12-27T11:18:33.290Z,48.30
2017-12-27T11:19:33.294Z,48.01
2017-12-27T11:20:33.294Z,47.92
2017-12-27T11:21:33.296Z,48.11
2017-12-27T11:22:33.300Z,48.40
2017-12-27T11:23:33.301Z,48.21
2017-12-27T11:24:33.306Z,48.49
2017-12-27T11:25:33.306Z,48.40
2017-12-27T11:26:33.309Z,48.40
2017-12-27T11:27:33.315Z,48.30
2017-12-27T11:28:33.316Z,48.69
2017-12-27T11:29:33.317Z,48.97
2017-12-27T11:30:33.322Z,48.79
2017-12-27T11:31:33.322Z,48.69
2017-12-27T11:32:33.326Z,48.69
2017-12-27T11:33:33.327Z,48.79
2017-12-27T11:34:33.330Z,48.79
2017-12-27T11:35:33.333Z,49.07
2017-12-27T11:36:33.336Z,49.07
2017-12-27T11:37:33.338Z,49.37
2017-12-27T11:38:33.339Z,49.27
2017-12-27T11:39:33.343Z,48.69
2017-12-27T11:40:33.346Z,48.69
2017-12-27T11:41:33.347Z,48.59
2017-12-27T11:42:33.350Z,49.37
2017-12-27T11:43:33.353Z,49.07
2017-12-27T11:44:33.359Z,49.17
2017-12-27T11:45:33.360Z,49.27
2017-12-27T11:46:33.360Z,49.07
2017-12-27T11:47:33.364Z,48.97
2017-12-27T11:48:33.366Z,48.97
2017-12-27T11:49:33.368Z,49.27
2017-12-27T11:50:33.371Z,48.59
2017-12-27T11:51:33.373Z,48.97
2017-12-27T11:52:33.376Z,49.27
2017-12-27T11:53:33.378Z,49.17
2017-12-27T11:54:33.381Z,49.27
2017-12-27T11:55:33.384Z,49.17
2017-12-27T11:56:33.387Z,48.59
2017-12-27T11:57:33.388Z,48.97
2017-12-27T11:58:33.394Z,49.17
2017-12-27T11:59:33.394Z,49.07
2017-12-27T12:00:33.398Z,49.27
2017-12-27T12:01:33.399Z,49.17
2017-12-27T12:02:33.402Z,49.46
2017-12-27T12:03:33.405Z,48.79
2017-12-27T12:04:33.407Z,49.17
2017-12-27T12:05:33.410Z,48.88
2017-12-27T12:06:33.418Z,48.97
2017-12-27T12:07:33.414Z,49.07
2017-12-27T12:08:33.416Z,49.07
2017-12-27T12:09:33.418Z,49.17
2017-12-27T12:10:33.422Z,49.07
2017-12-27T12:11:33.425Z,49.07
2017-12-27T12:12:33.427Z,49.27
2017-12-27T12:13:33.429Z,49.37
2017-12-27T12:14:33.432Z,49.55
2017-12-27T12:15:33.435Z,49.75
2017-12-27T12:16:33.437Z,49.75
2017-12-27T12:17:33.439Z,49.75
2017-12-27T12:18:33.441Z,49.46
2017-12-27T12:19:33.445Z,49.65
2017-12-27T12:20:33.450Z,49.75
2017-12-27T12:21:33.451Z,49.75
2017-12-27T12:22:33.453Z,49.55
2017-12-27T12:23:33.455Z,49.55
2017-12-27T12:24:33.458Z,50.23
2017-12-27T12:25:33.460Z,49.65
2017-12-27T12:26:33.462Z,49.55
2017-12-27T12:27:33.465Z,49.65
2017-12-27T12:28:33.468Z,49.75
2017-12-27T12:29:33.469Z,49.94
2017-12-27T12:30:33.472Z,49.65
2017-12-27T12:31:33.483Z,49.17
2017-12-27T12:32:33.483Z,49.46
2017-12-27T12:33:33.485Z,49.84
2017-12-27T12:34:33.485Z,49.75
2017-12-27T12:35:33.486Z,49.84
2017-12-27T12:36:33.489Z,49.84
2017-12-27T12:37:33.498Z,49.07
2017-12-27T12:38:33.493Z,49.84
2017-12-27T12:39:33.495Z,49.46
2017-12-27T12:40:33.508Z,49.65
2017-12-27T12:41:33.499Z,49.55
2017-12-27T12:42:33.502Z,49.37
2017-12-27T12:43:33.505Z,49.75
2017-12-27T12:44:33.507Z,49.75
2017-12-27T12:45:33.511Z,49.46
2017-12-27T12:46:33.511Z,49.84
2017-12-27T12:47:33.523Z,49.75
2017-12-27T12:48:33.517Z,49.75
2017-12-27T12:49:33.518Z,49.37
2017-12-27T12:50:33.522Z,49.46
2017-12-27T12:51:33.528Z,49.65
2017-12-27T12:52:33.526Z,49.65